sensor_id;sensor_type;location;lat;lon;timestamp;temperature;humidity
70826;SHT31;58446;41.490;22.098;2023-04-25T00:01:24;14.12;81.83
70826;SHT31;58446;41.490;22.098;2023-04-25T00:03:50;14.16;81.57
70826;SHT31;58446;41.490;22.098;2023-04-25T00:06:16;14.10;81.51
70826;SHT31;58446;41.490;22.098;2023-04-25T00:08:43;14.06;81.50
70826;SHT31;58446;41.490;22.098;2023-04-25T00:11:09;14.08;81.34
70826;SHT31;58446;41.490;22.098;2023-04-25T00:13:35;14.02;81.43
70826;SHT31;58446;41.490;22.098;2023-04-25T00:16:01;14.06;81.56
70826;SHT31;58446;41.490;22.098;2023-04-25T00:18:27;14.08;81.40
70826;SHT31;58446;41.490;22.098;2023-04-25T00:20:54;13.95;81.76
70826;SHT31;58446;41.490;22.098;2023-04-25T00:23:21;13.98;81.68
70826;SHT31;58446;41.490;22.098;2023-04-25T00:25:48;14.08;81.28
70826;SHT31;58446;41.490;22.098;2023-04-25T00:28:14;14.08;81.21
70826;SHT31;58446;41.490;22.098;2023-04-25T00:30:41;14.04;81.37
70826;SHT31;58446;41.490;22.098;2023-04-25T00:33:07;13.99;81.71
70826;SHT31;58446;41.490;22.098;2023-04-25T00:35:33;13.95;82.12
70826;SHT31;58446;41.490;22.098;2023-04-25T00:37:59;13.88;82.30
70826;SHT31;58446;41.490;22.098;2023-04-25T00:40:24;13.88;82.40
70826;SHT31;58446;41.490;22.098;2023-04-25T00:42:52;13.78;82.67
70826;SHT31;58446;41.490;22.098;2023-04-25T00:45:18;13.77;82.71
70826;SHT31;58446;41.490;22.098;2023-04-25T00:47:44;13.77;82.70
70826;SHT31;58446;41.490;22.098;2023-04-25T00:50:11;13.79;82.57
70826;SHT31;58446;41.490;22.098;2023-04-25T00:52:38;13.75;82.64
70826;SHT31;58446;41.490;22.098;2023-04-25T00:55:07;13.81;82.35
70826;SHT31;58446;41.490;22.098;2023-04-25T00:57:33;13.77;82.07
70826;SHT31;58446;41.490;22.098;2023-04-25T00:59:59;13.75;81.77
70826;SHT31;58446;41.490;22.098;2023-04-25T01:02:25;13.72;81.74
70826;SHT31;58446;41.490;22.098;2023-04-25T01:04:52;13.81;81.23
70826;SHT31;58446;41.490;22.098;2023-04-25T01:07:18;13.85;81.02
70826;SHT31;58446;41.490;22.098;2023-04-25T01:09:45;13.89;80.94
70826;SHT31;58446;41.490;22.098;2023-04-25T01:12:11;13.81;81.22
70826;SHT31;58446;41.490;22.098;2023-04-25T01:14:37;13.75;81.34
70826;SHT31;58446;41.490;22.098;2023-04-25T01:17:03;13.75;81.18
70826;SHT31;58446;41.490;22.098;2023-04-25T01:19:29;13.72;81.31
70826;SHT31;58446;41.490;22.098;2023-04-25T01:21:55;13.68;81.42
70826;SHT31;58446;41.490;22.098;2023-04-25T01:24:21;13.75;81.40
70826;SHT31;58446;41.490;22.098;2023-04-25T01:26:46;13.74;81.59
70826;SHT31;58446;41.490;22.098;2023-04-25T01:29:17;13.74;81.63
70826;SHT31;58446;41.490;22.098;2023-04-25T01:31:44;13.78;81.53
70826;SHT31;58446;41.490;22.098;2023-04-25T01:34:11;13.82;81.50
70826;SHT31;58446;41.490;22.098;2023-04-25T01:36:36;13.83;81.20
70826;SHT31;58446;41.490;22.098;2023-04-25T01:39:02;13.78;81.26
70826;SHT31;58446;41.490;22.098;2023-04-25T01:41:28;13.72;81.14
70826;SHT31;58446;41.490;22.098;2023-04-25T01:43:55;13.78;80.92
70826;SHT31;58446;41.490;22.098;2023-04-25T01:46:21;13.74;80.97
70826;SHT31;58446;41.490;22.098;2023-04-25T01:48:46;13.77;80.97
70826;SHT31;58446;41.490;22.098;2023-04-25T01:51:12;13.77;81.23
70826;SHT31;58446;41.490;22.098;2023-04-25T01:53:38;13.74;81.46
70826;SHT31;58446;41.490;22.098;2023-04-25T01:56:05;13.71;81.27
70826;SHT31;58446;41.490;22.098;2023-04-25T01:58:30;13.65;81.85
70826;SHT31;58446;41.490;22.098;2023-04-25T02:00:56;13.77;81.72
70826;SHT31;58446;41.490;22.098;2023-04-25T02:03:34;13.83;81.36
70826;SHT31;58446;41.490;22.098;2023-04-25T02:06:06;13.82;81.37
70826;SHT31;58446;41.490;22.098;2023-04-25T02:08:32;13.81;81.45
70826;SHT31;58446;41.490;22.098;2023-04-25T02:10:58;13.79;81.56
70826;SHT31;58446;41.490;22.098;2023-04-25T02:13:24;13.75;81.45
70826;SHT31;58446;41.490;22.098;2023-04-25T02:15:50;13.71;81.92
70826;SHT31;58446;41.490;22.098;2023-04-25T02:18:15;13.74;81.92
70826;SHT31;58446;41.490;22.098;2023-04-25T02:20:42;13.72;81.83
70826;SHT31;58446;41.490;22.098;2023-04-25T02:23:08;13.69;81.89
70826;SHT31;58446;41.490;22.098;2023-04-25T02:25:34;13.65;82.01
70826;SHT31;58446;41.490;22.098;2023-04-25T02:28:00;13.62;82.67
70826;SHT31;58446;41.490;22.098;2023-04-25T02:30:25;13.64;82.68
70826;SHT31;58446;41.490;22.098;2023-04-25T02:32:51;13.74;82.21
70826;SHT31;58446;41.490;22.098;2023-04-25T02:35:17;13.98;80.93
70826;SHT31;58446;41.490;22.098;2023-04-25T02:37:43;14.19;80.33
70826;SHT31;58446;41.490;22.098;2023-04-25T02:40:09;14.25;80.32
70826;SHT31;58446;41.490;22.098;2023-04-25T02:42:35;14.34;79.77
70826;SHT31;58446;41.490;22.098;2023-04-25T02:45:01;14.44;79.55
70826;SHT31;58446;41.490;22.098;2023-04-25T02:47:27;14.46;79.54
70826;SHT31;58446;41.490;22.098;2023-04-25T02:49:52;14.39;80.41
70826;SHT31;58446;41.490;22.098;2023-04-25T02:52:18;14.19;81.35
70826;SHT31;58446;41.490;22.098;2023-04-25T02:54:44;13.92;82.18
70826;SHT31;58446;41.490;22.098;2023-04-25T02:57:09;13.90;82.69
70826;SHT31;58446;41.490;22.098;2023-04-25T02:59:35;13.78;82.87
70826;SHT31;58446;41.490;22.098;2023-04-25T03:02:01;13.67;83.49
70826;SHT31;58446;41.490;22.098;2023-04-25T03:04:27;13.62;83.70
70826;SHT31;58446;41.490;22.098;2023-04-25T03:06:53;13.74;83.42
70826;SHT31;58446;41.490;22.098;2023-04-25T03:09:19;13.71;83.67
70826;SHT31;58446;41.490;22.098;2023-04-25T03:11:45;13.69;83.60
70826;SHT31;58446;41.490;22.098;2023-04-25T03:14:12;13.65;83.87
70826;SHT31;58446;41.490;22.098;2023-04-25T03:16:38;13.57;84.73
70826;SHT31;58446;41.490;22.098;2023-04-25T03:19:04;13.48;85.18
70826;SHT31;58446;41.490;22.098;2023-04-25T03:21:31;13.57;84.85
70826;SHT31;58446;41.490;22.098;2023-04-25T03:24:01;13.47;85.16
70826;SHT31;58446;41.490;22.098;2023-04-25T03:26:27;13.37;85.45
70826;SHT31;58446;41.490;22.098;2023-04-25T03:28:53;13.44;85.14
70826;SHT31;58446;41.490;22.098;2023-04-25T03:31:19;13.44;85.34
70826;SHT31;58446;41.490;22.098;2023-04-25T03:33:44;13.37;85.59
70826;SHT31;58446;41.490;22.098;2023-04-25T03:36:10;13.34;86.15
70826;SHT31;58446;41.490;22.098;2023-04-25T03:38:36;13.43;86.02
70826;SHT31;58446;41.490;22.098;2023-04-25T03:41:02;13.38;85.71
70826;SHT31;58446;41.490;22.098;2023-04-25T03:43:28;13.41;85.26
70826;SHT31;58446;41.490;22.098;2023-04-25T03:45:54;13.31;85.36
70826;SHT31;58446;41.490;22.098;2023-04-25T03:48:20;13.23;85.52
70826;SHT31;58446;41.490;22.098;2023-04-25T03:50:47;13.24;85.62
70826;SHT31;58446;41.490;22.098;2023-04-25T03:53:13;13.21;85.69
70826;SHT31;58446;41.490;22.098;2023-04-25T03:55:39;13.16;85.30
70826;SHT31;58446;41.490;22.098;2023-04-25T03:58:05;13.13;85.07
70826;SHT31;58446;41.490;22.098;2023-04-25T04:00:31;13.10;84.76
70826;SHT31;58446;41.490;22.098;2023-04-25T04:02:57;13.13;84.70
70826;SHT31;58446;41.490;22.098;2023-04-25T04:05:25;13.16;84.62
70826;SHT31;58446;41.490;22.098;2023-04-25T04:07:51;13.08;84.49
70826;SHT31;58446;41.490;22.098;2023-04-25T04:10:16;13.03;84.57
70826;SHT31;58446;41.490;22.098;2023-04-25T04:12:42;13.04;84.57
70826;SHT31;58446;41.490;22.098;2023-04-25T04:15:08;13.00;84.39
70826;SHT31;58446;41.490;22.098;2023-04-25T04:17:35;13.06;83.82
70826;SHT31;58446;41.490;22.098;2023-04-25T04:20:00;13.06;83.61
70826;SHT31;58446;41.490;22.098;2023-04-25T04:22:26;13.11;83.54
70826;SHT31;58446;41.490;22.098;2023-04-25T04:24:52;13.16;83.21
70826;SHT31;58446;41.490;22.098;2023-04-25T04:27:18;13.78;81.87
70826;SHT31;58446;41.490;22.098;2023-04-25T04:29:45;14.55;78.98
70826;SHT31;58446;41.490;22.098;2023-04-25T04:32:12;14.67;77.71
70826;SHT31;58446;41.490;22.098;2023-04-25T04:34:37;14.68;78.49
70826;SHT31;58446;41.490;22.098;2023-04-25T04:37:05;15.08;77.38
70826;SHT31;58446;41.490;22.098;2023-04-25T04:39:32;14.98;77.13
70826;SHT31;58446;41.490;22.098;2023-04-25T04:41:58;15.32;76.57
70826;SHT31;58446;41.490;22.098;2023-04-25T04:44:24;15.55;75.79
70826;SHT31;58446;41.490;22.098;2023-04-25T04:46:50;15.18;76.82
70826;SHT31;58446;41.490;22.098;2023-04-25T04:49:16;15.18;77.24
70826;SHT31;58446;41.490;22.098;2023-04-25T04:51:42;15.42;76.51
70826;SHT31;58446;41.490;22.098;2023-04-25T04:54:12;15.62;76.55
70826;SHT31;58446;41.490;22.098;2023-04-25T04:56:38;15.62;76.88
70826;SHT31;58446;41.490;22.098;2023-04-25T04:59:04;15.66;76.72
70826;SHT31;58446;41.490;22.098;2023-04-25T05:01:30;15.82;76.70
70826;SHT31;58446;41.490;22.098;2023-04-25T05:03:56;15.90;75.84
70826;SHT31;58446;41.490;22.098;2023-04-25T05:06:26;16.07;75.52
70826;SHT31;58446;41.490;22.098;2023-04-25T05:08:52;16.04;75.29
70826;SHT31;58446;41.490;22.098;2023-04-25T05:11:19;16.10;75.31
70826;SHT31;58446;41.490;22.098;2023-04-25T05:13:45;16.11;75.59
70826;SHT31;58446;41.490;22.098;2023-04-25T05:16:11;16.28;75.26
70826;SHT31;58446;41.490;22.098;2023-04-25T05:18:38;16.61;75.03
70826;SHT31;58446;41.490;22.098;2023-04-25T05:21:04;16.82;73.33
70826;SHT31;58446;41.490;22.098;2023-04-25T05:23:30;16.86;72.92
70826;SHT31;58446;41.490;22.098;2023-04-25T05:25:56;16.76;73.55
70826;SHT31;58446;41.490;22.098;2023-04-25T05:28:22;16.79;73.65
70826;SHT31;58446;41.490;22.098;2023-04-25T05:30:48;17.03;74.27
70826;SHT31;58446;41.490;22.098;2023-04-25T05:33:14;17.10;72.01
70826;SHT31;58446;41.490;22.098;2023-04-25T05:35:40;17.17;72.54
70826;SHT31;58446;41.490;22.098;2023-04-25T05:38:06;17.26;72.04
70826;SHT31;58446;41.490;22.098;2023-04-25T05:40:32;17.31;72.07
70826;SHT31;58446;41.490;22.098;2023-04-25T05:43:00;17.40;72.57
70826;SHT31;58446;41.490;22.098;2023-04-25T05:45:26;17.06;72.26
70826;SHT31;58446;41.490;22.098;2023-04-25T05:47:51;17.24;72.02
70826;SHT31;58446;41.490;22.098;2023-04-25T05:50:17;17.54;71.43
70826;SHT31;58446;41.490;22.098;2023-04-25T05:52:43;17.64;69.97
70826;SHT31;58446;41.490;22.098;2023-04-25T05:55:09;17.84;70.53
70826;SHT31;58446;41.490;22.098;2023-04-25T05:57:35;17.91;69.22
70826;SHT31;58446;41.490;22.098;2023-04-25T06:00:01;17.88;69.07
70826;SHT31;58446;41.490;22.098;2023-04-25T06:02:27;18.02;70.20
70826;SHT31;58446;41.490;22.098;2023-04-25T06:04:53;17.98;68.34
70826;SHT31;58446;41.490;22.098;2023-04-25T06:07:19;17.79;68.05
70826;SHT31;58446;41.490;22.098;2023-04-25T06:09:46;17.66;68.70
70826;SHT31;58446;41.490;22.098;2023-04-25T06:12:12;17.66;69.22
70826;SHT31;58446;41.490;22.098;2023-04-25T06:14:37;17.50;69.33
70826;SHT31;58446;41.490;22.098;2023-04-25T06:17:05;17.74;69.94
70826;SHT31;58446;41.490;22.098;2023-04-25T06:19:35;17.60;69.43
70826;SHT31;58446;41.490;22.098;2023-04-25T06:22:02;17.40;68.33
70826;SHT31;58446;41.490;22.098;2023-04-25T06:24:28;17.30;69.53
70826;SHT31;58446;41.490;22.098;2023-04-25T06:26:55;17.15;68.38
70826;SHT31;58446;41.490;22.098;2023-04-25T06:29:21;17.16;69.62
70826;SHT31;58446;41.490;22.098;2023-04-25T06:31:47;17.33;69.86
70826;SHT31;58446;41.490;22.098;2023-04-25T06:34:12;17.36;69.29
70826;SHT31;58446;41.490;22.098;2023-04-25T06:36:38;17.48;69.52
70826;SHT31;58446;41.490;22.098;2023-04-25T06:39:04;17.77;68.30
70826;SHT31;58446;41.490;22.098;2023-04-25T06:41:30;17.75;66.59
70826;SHT31;58446;41.490;22.098;2023-04-25T06:43:57;17.58;66.62
70826;SHT31;58446;41.490;22.098;2023-04-25T06:46:22;17.58;67.08
70826;SHT31;58446;41.490;22.098;2023-04-25T06:48:48;17.91;68.19
70826;SHT31;58446;41.490;22.098;2023-04-25T06:51:19;18.10;65.62
70826;SHT31;58446;41.490;22.098;2023-04-25T06:53:44;18.29;65.68
70826;SHT31;58446;41.490;22.098;2023-04-25T06:56:10;18.57;63.85
70826;SHT31;58446;41.490;22.098;2023-04-25T06:58:36;18.57;60.60
70826;SHT31;58446;41.490;22.098;2023-04-25T07:01:01;18.71;62.38
70826;SHT31;58446;41.490;22.098;2023-04-25T07:03:27;18.90;62.35
70826;SHT31;58446;41.490;22.098;2023-04-25T07:05:53;19.21;61.45
70826;SHT31;58446;41.490;22.098;2023-04-25T07:08:18;19.49;58.18
70826;SHT31;58446;41.490;22.098;2023-04-25T07:10:45;19.52;58.72
70826;SHT31;58446;41.490;22.098;2023-04-25T07:13:11;19.62;58.40
70826;SHT31;58446;41.490;22.098;2023-04-25T07:15:37;19.63;57.58
70826;SHT31;58446;41.490;22.098;2023-04-25T07:18:03;19.69;56.68
70826;SHT31;58446;41.490;22.098;2023-04-25T07:20:28;19.68;56.80
70826;SHT31;58446;41.490;22.098;2023-04-25T07:22:56;19.73;59.03
70826;SHT31;58446;41.490;22.098;2023-04-25T07:25:22;20.03;59.43
70826;SHT31;58446;41.490;22.098;2023-04-25T07:27:48;20.37;58.04
70826;SHT31;58446;41.490;22.098;2023-04-25T07:30:14;20.29;57.08
70826;SHT31;58446;41.490;22.098;2023-04-25T07:32:39;20.24;56.64
70826;SHT31;58446;41.490;22.098;2023-04-25T07:35:06;20.23;56.75
70826;SHT31;58446;41.490;22.098;2023-04-25T07:37:36;20.20;57.28
70826;SHT31;58446;41.490;22.098;2023-04-25T07:40:05;20.24;54.65
70826;SHT31;58446;41.490;22.098;2023-04-25T07:42:31;20.36;55.64
70826;SHT31;58446;41.490;22.098;2023-04-25T07:44:57;20.57;54.04
70826;SHT31;58446;41.490;22.098;2023-04-25T07:47:23;20.60;54.01
70826;SHT31;58446;41.490;22.098;2023-04-25T07:49:48;20.72;56.27
70826;SHT31;58446;41.490;22.098;2023-04-25T07:52:14;20.91;53.86
70826;SHT31;58446;41.490;22.098;2023-04-25T07:54:40;20.95;54.38
70826;SHT31;58446;41.490;22.098;2023-04-25T07:57:07;21.02;51.23
70826;SHT31;58446;41.490;22.098;2023-04-25T07:59:32;21.22;54.17
70826;SHT31;58446;41.490;22.098;2023-04-25T08:01:58;21.42;51.49
70826;SHT31;58446;41.490;22.098;2023-04-25T08:04:24;21.43;51.59
70826;SHT31;58446;41.490;22.098;2023-04-25T08:06:54;21.26;52.35
70826;SHT31;58446;41.490;22.098;2023-04-25T08:09:20;21.03;51.01
70826;SHT31;58446;41.490;22.098;2023-04-25T08:11:46;21.05;50.84
70826;SHT31;58446;41.490;22.098;2023-04-25T08:14:12;21.13;52.42
70826;SHT31;58446;41.490;22.098;2023-04-25T08:16:38;21.42;52.04
70826;SHT31;58446;41.490;22.098;2023-04-25T08:19:04;21.70;52.57
70826;SHT31;58446;41.490;22.098;2023-04-25T08:21:30;21.84;51.74
70826;SHT31;58446;41.490;22.098;2023-04-25T08:23:57;21.67;51.08
70826;SHT31;58446;41.490;22.098;2023-04-25T08:26:24;21.66;50.52
70826;SHT31;58446;41.490;22.098;2023-04-25T08:28:50;21.53;49.80
70826;SHT31;58446;41.490;22.098;2023-04-25T08:31:16;21.32;47.96
70826;SHT31;58446;41.490;22.098;2023-04-25T08:33:42;21.25;52.10
70826;SHT31;58446;41.490;22.098;2023-04-25T08:36:08;21.20;49.20
70826;SHT31;58446;41.490;22.098;2023-04-25T08:38:34;21.29;46.32
70826;SHT31;58446;41.490;22.098;2023-04-25T08:40:59;21.36;45.33
70826;SHT31;58446;41.490;22.098;2023-04-25T08:43:26;21.36;45.42
70826;SHT31;58446;41.490;22.098;2023-04-25T08:46:00;21.51;45.05
70826;SHT31;58446;41.490;22.098;2023-04-25T08:48:27;21.73;46.34
70826;SHT31;58446;41.490;22.098;2023-04-25T08:50:55;21.87;48.14
70826;SHT31;58446;41.490;22.098;2023-04-25T08:53:28;22.18;47.89
70826;SHT31;58446;41.490;22.098;2023-04-25T08:55:55;22.32;47.00
70826;SHT31;58446;41.490;22.098;2023-04-25T08:58:22;22.35;44.15
70826;SHT31;58446;41.490;22.098;2023-04-25T09:00:50;22.18;43.55
70826;SHT31;58446;41.490;22.098;2023-04-25T09:03:19;22.09;44.49
70826;SHT31;58446;41.490;22.098;2023-04-25T09:05:45;22.09;47.14
70826;SHT31;58446;41.490;22.098;2023-04-25T09:08:11;22.22;48.98
70826;SHT31;58446;41.490;22.098;2023-04-25T09:10:37;22.49;47.74
70826;SHT31;58446;41.490;22.098;2023-04-25T09:13:08;22.39;44.39
70826;SHT31;58446;41.490;22.098;2023-04-25T09:15:55;22.27;42.74
70826;SHT31;58446;41.490;22.098;2023-04-25T09:18:34;22.34;40.36
70826;SHT31;58446;41.490;22.098;2023-04-25T09:21:08;22.19;44.23
70826;SHT31;58446;41.490;22.098;2023-04-25T09:23:49;22.04;43.75
70826;SHT31;58446;41.490;22.098;2023-04-25T09:26:21;22.02;43.42
70826;SHT31;58446;41.490;22.098;2023-04-25T09:28:46;22.05;45.50
70826;SHT31;58446;41.490;22.098;2023-04-25T09:31:22;21.97;45.92
70826;SHT31;58446;41.490;22.098;2023-04-25T09:33:49;22.01;44.68
70826;SHT31;58446;41.490;22.098;2023-04-25T09:36:15;22.11;43.37
70826;SHT31;58446;41.490;22.098;2023-04-25T09:38:45;22.17;43.32
70826;SHT31;58446;41.490;22.098;2023-04-25T09:41:11;22.02;41.09
70826;SHT31;58446;41.490;22.098;2023-04-25T09:43:38;21.84;42.51
70826;SHT31;58446;41.490;22.098;2023-04-25T09:46:11;21.78;42.63
70826;SHT31;58446;41.490;22.098;2023-04-25T09:48:37;21.77;42.93
70826;SHT31;58446;41.490;22.098;2023-04-25T09:51:09;21.67;43.16
70826;SHT31;58446;41.490;22.098;2023-04-25T09:53:40;21.46;43.53
70826;SHT31;58446;41.490;22.098;2023-04-25T09:56:08;21.20;45.41
70826;SHT31;58446;41.490;22.098;2023-04-25T09:58:35;20.96;48.27
70826;SHT31;58446;41.490;22.098;2023-04-25T10:01:04;20.67;49.82
70826;SHT31;58446;41.490;22.098;2023-04-25T10:03:35;20.00;48.80
70826;SHT31;58446;41.490;22.098;2023-04-25T10:06:07;19.82;49.40
70826;SHT31;58446;41.490;22.098;2023-04-25T10:08:35;19.41;50.59
70826;SHT31;58446;41.490;22.098;2023-04-25T10:11:03;19.25;52.53
70826;SHT31;58446;41.490;22.098;2023-04-25T10:13:30;18.86;52.39
70826;SHT31;58446;41.490;22.098;2023-04-25T10:16:00;18.50;53.49
70826;SHT31;58446;41.490;22.098;2023-04-25T10:18:27;18.56;56.66
70826;SHT31;58446;41.490;22.098;2023-04-25T10:20:59;18.79;56.82
70826;SHT31;58446;41.490;22.098;2023-04-25T10:23:26;18.81;57.07
70826;SHT31;58446;41.490;22.098;2023-04-25T10:25:53;18.73;58.42
70826;SHT31;58446;41.490;22.098;2023-04-25T10:28:19;18.60;58.48
70826;SHT31;58446;41.490;22.098;2023-04-25T10:31:02;18.46;59.46
70826;SHT31;58446;41.490;22.098;2023-04-25T10:33:38;18.46;59.89
70826;SHT31;58446;41.490;22.098;2023-04-25T10:36:17;18.43;63.32
70826;SHT31;58446;41.490;22.098;2023-04-25T10:38:45;18.33;62.84
70826;SHT31;58446;41.490;22.098;2023-04-25T10:41:12;18.25;62.22
70826;SHT31;58446;41.490;22.098;2023-04-25T10:43:40;18.22;61.86
70826;SHT31;58446;41.490;22.098;2023-04-25T10:48:53;18.15;61.38
70826;SHT31;58446;41.490;22.098;2023-04-25T10:51:22;18.18;59.97
70826;SHT31;58446;41.490;22.098;2023-04-25T10:53:57;18.21;59.60
70826;SHT31;58446;41.490;22.098;2023-04-25T10:56:29;18.29;60.44
70826;SHT31;58446;41.490;22.098;2023-04-25T10:59:15;18.38;61.72
70826;SHT31;58446;41.490;22.098;2023-04-25T11:01:44;18.22;58.59
70826;SHT31;58446;41.490;22.098;2023-04-25T11:04:23;18.10;61.36
70826;SHT31;58446;41.490;22.098;2023-04-25T11:07:21;17.98;62.59
70826;SHT31;58446;41.490;22.098;2023-04-25T11:09:49;17.81;62.56
70826;SHT31;58446;41.490;22.098;2023-04-25T11:12:17;17.77;56.23
70826;SHT31;58446;41.490;22.098;2023-04-25T11:14:43;17.71;63.27
70826;SHT31;58446;41.490;22.098;2023-04-25T11:17:09;17.75;63.11
70826;SHT31;58446;41.490;22.098;2023-04-25T11:19:36;17.88;62.52
70826;SHT31;58446;41.490;22.098;2023-04-25T11:22:02;17.85;59.63
70826;SHT31;58446;41.490;22.098;2023-04-25T11:24:30;17.81;60.44
70826;SHT31;58446;41.490;22.098;2023-04-25T11:26:58;17.97;62.41
70826;SHT31;58446;41.490;22.098;2023-04-25T11:29:31;18.08;61.52
70826;SHT31;58446;41.490;22.098;2023-04-25T11:31:57;18.18;63.33
70826;SHT31;58446;41.490;22.098;2023-04-25T11:34:24;18.28;60.97
70826;SHT31;58446;41.490;22.098;2023-04-25T11:36:51;18.40;61.35
70826;SHT31;58446;41.490;22.098;2023-04-25T11:39:18;18.40;60.85
70826;SHT31;58446;41.490;22.098;2023-04-25T11:41:44;18.38;60.78
70826;SHT31;58446;41.490;22.098;2023-04-25T11:44:10;18.35;63.14
70826;SHT31;58446;41.490;22.098;2023-04-25T11:46:36;18.33;62.48
70826;SHT31;58446;41.490;22.098;2023-04-25T11:49:02;18.38;62.18
70826;SHT31;58446;41.490;22.098;2023-04-25T11:51:30;18.40;62.65
70826;SHT31;58446;41.490;22.098;2023-04-25T11:53:57;18.24;62.89
70826;SHT31;58446;41.490;22.098;2023-04-25T11:56:22;18.30;62.33
70826;SHT31;58446;41.490;22.098;2023-04-25T11:59:02;18.29;62.74
70826;SHT31;58446;41.490;22.098;2023-04-25T12:03:55;18.33;67.21
70826;SHT31;58446;41.490;22.098;2023-04-25T12:06:25;18.33;66.61
70826;SHT31;58446;41.490;22.098;2023-04-25T12:09:04;18.13;68.09
70826;SHT31;58446;41.490;22.098;2023-04-25T12:11:31;17.92;64.60
70826;SHT31;58446;41.490;22.098;2023-04-25T12:14:03;17.91;63.57
70826;SHT31;58446;41.490;22.098;2023-04-25T12:16:40;17.92;66.60
70826;SHT31;58446;41.490;22.098;2023-04-25T12:19:06;18.05;66.23
70826;SHT31;58446;41.490;22.098;2023-04-25T12:21:32;18.32;65.52
70826;SHT31;58446;41.490;22.098;2023-04-25T12:24:12;18.53;62.31
70826;SHT31;58446;41.490;22.098;2023-04-25T12:27:04;18.69;61.26
70826;SHT31;58446;41.490;22.098;2023-04-25T12:29:32;18.93;60.12
70826;SHT31;58446;41.490;22.098;2023-04-25T12:31:58;19.11;60.99
70826;SHT31;58446;41.490;22.098;2023-04-25T12:34:25;19.14;58.03
70826;SHT31;58446;41.490;22.098;2023-04-25T12:36:51;19.21;59.92
70826;SHT31;58446;41.490;22.098;2023-04-25T12:39:19;19.17;56.36
70826;SHT31;58446;41.490;22.098;2023-04-25T12:41:45;19.03;59.38
70826;SHT31;58446;41.490;22.098;2023-04-25T12:44:12;18.91;59.10
70826;SHT31;58446;41.490;22.098;2023-04-25T12:46:38;18.79;58.76
70826;SHT31;58446;41.490;22.098;2023-04-25T12:49:04;18.74;57.84
70826;SHT31;58446;41.490;22.098;2023-04-25T12:51:31;18.84;56.23
70826;SHT31;58446;41.490;22.098;2023-04-25T12:53:58;18.91;57.48
70826;SHT31;58446;41.490;22.098;2023-04-25T12:56:26;19.07;58.91
70826;SHT31;58446;41.490;22.098;2023-04-25T12:58:53;19.01;58.92
70826;SHT31;58446;41.490;22.098;2023-04-25T13:01:21;18.88;60.72
70826;SHT31;58446;41.490;22.098;2023-04-25T13:03:47;18.84;60.99
70826;SHT31;58446;41.490;22.098;2023-04-25T13:06:15;18.66;60.77
70826;SHT31;58446;41.490;22.098;2023-04-25T13:08:41;18.64;62.33
70826;SHT31;58446;41.490;22.098;2023-04-25T13:11:07;18.61;60.85
70826;SHT31;58446;41.490;22.098;2023-04-25T13:13:33;18.66;61.39
70826;SHT31;58446;41.490;22.098;2023-04-25T13:16:03;18.69;61.00
70826;SHT31;58446;41.490;22.098;2023-04-25T13:18:30;18.69;62.41
70826;SHT31;58446;41.490;22.098;2023-04-25T13:20:57;18.71;61.54
70826;SHT31;58446;41.490;22.098;2023-04-25T13:23:24;18.77;61.37
70826;SHT31;58446;41.490;22.098;2023-04-25T13:25:50;18.88;62.23
70826;SHT31;58446;41.490;22.098;2023-04-25T13:28:16;18.84;62.22
70826;SHT31;58446;41.490;22.098;2023-04-25T13:30:42;18.81;61.91
70826;SHT31;58446;41.490;22.098;2023-04-25T13:33:08;18.86;59.98
70826;SHT31;58446;41.490;22.098;2023-04-25T13:35:36;18.90;59.45
70826;SHT31;58446;41.490;22.098;2023-04-25T13:38:02;18.97;60.23
70826;SHT31;58446;41.490;22.098;2023-04-25T13:40:28;19.00;59.80
70826;SHT31;58446;41.490;22.098;2023-04-25T13:42:55;19.15;58.39
70826;SHT31;58446;41.490;22.098;2023-04-25T13:45:20;19.18;58.82
70826;SHT31;58446;41.490;22.098;2023-04-25T13:47:46;19.12;61.25
70826;SHT31;58446;41.490;22.098;2023-04-25T13:50:12;19.08;61.25
70826;SHT31;58446;41.490;22.098;2023-04-25T13:52:39;19.14;59.84
70826;SHT31;58446;41.490;22.098;2023-04-25T13:55:06;19.25;58.92
70826;SHT31;58446;41.490;22.098;2023-04-25T13:57:35;19.44;57.58
70826;SHT31;58446;41.490;22.098;2023-04-25T14:00:02;19.54;55.57
70826;SHT31;58446;41.490;22.098;2023-04-25T14:02:37;19.63;54.67
70826;SHT31;58446;41.490;22.098;2023-04-25T14:05:04;19.65;53.39
70826;SHT31;58446;41.490;22.098;2023-04-25T14:07:30;19.65;52.49
70826;SHT31;58446;41.490;22.098;2023-04-25T14:09:56;19.66;52.45
70826;SHT31;58446;41.490;22.098;2023-04-25T14:12:23;19.63;52.84
70826;SHT31;58446;41.490;22.098;2023-04-25T14:14:48;19.61;52.19
70826;SHT31;58446;41.490;22.098;2023-04-25T14:17:14;19.59;50.72
70826;SHT31;58446;41.490;22.098;2023-04-25T14:19:40;19.59;51.27
70826;SHT31;58446;41.490;22.098;2023-04-25T14:22:09;19.65;52.12
70826;SHT31;58446;41.490;22.098;2023-04-25T14:24:34;19.63;55.89
70826;SHT31;58446;41.490;22.098;2023-04-25T14:27:01;19.66;55.96
70826;SHT31;58446;41.490;22.098;2023-04-25T14:29:27;19.62;54.81
70826;SHT31;58446;41.490;22.098;2023-04-25T14:31:53;19.58;53.84
70826;SHT31;58446;41.490;22.098;2023-04-25T14:34:19;19.57;55.47
70826;SHT31;58446;41.490;22.098;2023-04-25T14:36:45;19.48;56.02
70826;SHT31;58446;41.490;22.098;2023-04-25T14:39:11;19.42;52.75
70826;SHT31;58446;41.490;22.098;2023-04-25T14:41:37;19.52;55.27
70826;SHT31;58446;41.490;22.098;2023-04-25T14:44:03;19.52;56.05
70826;SHT31;58446;41.490;22.098;2023-04-25T14:46:29;19.42;55.72
70826;SHT31;58446;41.490;22.098;2023-04-25T14:48:55;19.34;57.78
70826;SHT31;58446;41.490;22.098;2023-04-25T14:51:21;19.27;57.16
70826;SHT31;58446;41.490;22.098;2023-04-25T14:53:47;19.28;57.60
70826;SHT31;58446;41.490;22.098;2023-04-25T14:56:13;19.28;57.74
70826;SHT31;58446;41.490;22.098;2023-04-25T14:58:39;19.27;58.70
70826;SHT31;58446;41.490;22.098;2023-04-25T15:01:05;19.22;59.92
70826;SHT31;58446;41.490;22.098;2023-04-25T15:03:32;19.14;60.19
70826;SHT31;58446;41.490;22.098;2023-04-25T15:05:58;19.08;61.59
70826;SHT31;58446;41.490;22.098;2023-04-25T15:08:23;19.06;60.58
70826;SHT31;58446;41.490;22.098;2023-04-25T15:10:49;19.01;60.41
70826;SHT31;58446;41.490;22.098;2023-04-25T15:13:17;18.96;59.61
70826;SHT31;58446;41.490;22.098;2023-04-25T15:15:43;18.96;59.46
70826;SHT31;58446;41.490;22.098;2023-04-25T15:18:08;18.98;60.89
70826;SHT31;58446;41.490;22.098;2023-04-25T15:20:34;19.01;61.03